Terminal Aerodrome Forecast
Issued by NWS

Home | Current Version | Previous Version | Text Only | Print | Product List | Glossary On
Versions: 1 2 3 4 5 6 7 8 9 10 11 12 13 14
000
FTUS46 KSEW 281027 AAA
TAFOLM
TAF AMD
KOLM 281027Z 2810/2906 19006KT P6SM BKN020 OVC040
     FM281300 20006KT P6SM -RA OVC020
     FM281800 20010KT P6SM -RA OVC030
     FM282100 23012G17KT P6SM -SHRA BKN030 BKN050
     FM290400 22010KT P6SM VCSH OVC030=

USA.gov is the U.S. government's official web portal to all federal, state and local government web resources and services.